sensor_id;sensor_type;location;lat;lon;timestamp;P1;durP1;ratioP1;P2;durP2;ratioP2
11037;SDS011;5572;49.540;11.932;2024-03-23T00:54:20;23.93;;;22.67;;
11037;SDS011;5572;49.540;11.932;2024-03-23T00:56:46;25.43;;;24.03;;
11037;SDS011;5572;49.540;11.932;2024-03-23T00:59:12;24.67;;;23.27;;
11037;SDS011;5572;49.540;11.932;2024-03-23T01:01:38;24.30;;;23.00;;
11037;SDS011;5572;49.540;11.932;2024-03-23T01:04:05;24.73;;;23.33;;
11037;SDS011;5572;49.540;11.932;2024-03-23T01:06:31;23.10;;;21.90;;
11037;SDS011;5572;49.540;11.932;2024-03-23T01:08:59;25.03;;;23.73;;
11037;SDS011;5572;49.540;11.932;2024-03-23T01:11:25;24.00;;;22.70;;
11037;SDS011;5572;49.540;11.932;2024-03-23T01:13:53;21.97;;;20.87;;
11037;SDS011;5572;49.540;11.932;2024-03-23T01:16:20;24.73;;;23.43;;
11037;SDS011;5572;49.540;11.932;2024-03-23T01:18:46;23.70;;;22.40;;
11037;SDS011;5572;49.540;11.932;2024-03-23T01:21:12;23.77;;;22.47;;
11037;SDS011;5572;49.540;11.932;2024-03-23T01:23:39;24.33;;;23.03;;
11037;SDS011;5572;49.540;11.932;2024-03-23T01:26:06;23.50;;;22.23;;
11037;SDS011;5572;49.540;11.932;2024-03-23T01:28:33;24.10;;;22.77;;
11037;SDS011;5572;49.540;11.932;2024-03-23T01:30:58;24.63;;;23.33;;
11037;SDS011;5572;49.540;11.932;2024-03-23T01:33:25;24.40;;;23.00;;
11037;SDS011;5572;49.540;11.932;2024-03-23T01:35:51;23.90;;;22.60;;
11037;SDS011;5572;49.540;11.932;2024-03-23T01:38:17;24.13;;;22.83;;
11037;SDS011;5572;49.540;11.932;2024-03-23T01:40:43;25.17;;;23.77;;
11037;SDS011;5572;49.540;11.932;2024-03-23T01:43:11;24.33;;;23.03;;
11037;SDS011;5572;49.540;11.932;2024-03-23T01:45:37;24.93;;;23.53;;
11037;SDS011;5572;49.540;11.932;2024-03-23T01:48:05;23.67;;;22.37;;
11037;SDS011;5572;49.540;11.932;2024-03-23T01:50:31;24.40;;;23.10;;
11037;SDS011;5572;49.540;11.932;2024-03-23T01:52:59;23.83;;;22.53;;
11037;SDS011;5572;49.540;11.932;2024-03-23T01:55:25;25.07;;;23.73;;
11037;SDS011;5572;49.540;11.932;2024-03-23T01:57:52;24.10;;;22.80;;
11037;SDS011;5572;49.540;11.932;2024-03-23T02:00:19;25.10;;;23.70;;
11037;SDS011;5572;49.540;11.932;2024-03-23T02:02:47;24.27;;;22.97;;
11037;SDS011;5572;49.540;11.932;2024-03-23T02:05:13;25.63;;;24.13;;
11037;SDS011;5572;49.540;11.932;2024-03-23T02:07:40;24.07;;;22.77;;
11037;SDS011;5572;49.540;11.932;2024-03-23T02:10:08;24.57;;;23.27;;
11037;SDS011;5572;49.540;11.932;2024-03-23T02:12:38;24.90;;;23.50;;
11037;SDS011;5572;49.540;11.932;2024-03-23T02:15:04;24.27;;;22.97;;
11037;SDS011;5572;49.540;11.932;2024-03-23T02:17:33;23.83;;;22.53;;
11037;SDS011;5572;49.540;11.932;2024-03-23T02:19:59;25.13;;;23.73;;
11037;SDS011;5572;49.540;11.932;2024-03-23T02:22:33;24.77;;;23.47;;
11037;SDS011;5572;49.540;11.932;2024-03-23T02:25:02;25.23;;;23.83;;
11037;SDS011;5572;49.540;11.932;2024-03-23T02:27:29;24.87;;;23.50;;
11037;SDS011;5572;49.540;11.932;2024-03-23T02:29:55;25.90;;;24.40;;
11037;SDS011;5572;49.540;11.932;2024-03-23T02:32:22;24.90;;;23.40;;
11037;SDS011;5572;49.540;11.932;2024-03-23T02:34:47;25.40;;;24.00;;
11037;SDS011;5572;49.540;11.932;2024-03-23T02:37:14;34.07;;;31.30;;
11037;SDS011;5572;49.540;11.932;2024-03-23T02:39:40;25.07;;;23.73;;
11037;SDS011;5572;49.540;11.932;2024-03-23T02:42:08;25.77;;;24.37;;
11037;SDS011;5572;49.540;11.932;2024-03-23T02:44:33;29.63;;;27.67;;
11037;SDS011;5572;49.540;11.932;2024-03-23T02:47:00;25.10;;;23.70;;
11037;SDS011;5572;49.540;11.932;2024-03-23T02:49:26;25.23;;;23.83;;
11037;SDS011;5572;49.540;11.932;2024-03-23T02:51:53;24.23;;;22.93;;
11037;SDS011;5572;49.540;11.932;2024-03-23T02:54:18;23.70;;;22.40;;
11037;SDS011;5572;49.540;11.932;2024-03-23T02:56:45;24.27;;;22.97;;
11037;SDS011;5572;49.540;11.932;2024-03-23T02:59:12;22.53;;;21.43;;
11037;SDS011;5572;49.540;11.932;2024-03-23T03:01:39;23.17;;;21.93;;
11037;SDS011;5572;49.540;11.932;2024-03-23T03:04:04;25.67;;;24.17;;
11037;SDS011;5572;49.540;11.932;2024-03-23T03:06:31;23.40;;;22.10;;
11037;SDS011;5572;49.540;11.932;2024-03-23T03:08:57;25.00;;;23.60;;
11037;SDS011;5572;49.540;11.932;2024-03-23T03:11:24;24.10;;;22.80;;
11037;SDS011;5572;49.540;11.932;2024-03-23T03:13:49;22.93;;;21.73;;
11037;SDS011;5572;49.540;11.932;2024-03-23T03:16:17;22.43;;;21.33;;
11037;SDS011;5572;49.540;11.932;2024-03-23T03:18:43;24.93;;;23.53;;
11037;SDS011;5572;49.540;11.932;2024-03-23T03:21:11;24.33;;;23.00;;
11037;SDS011;5572;49.540;11.932;2024-03-23T03:23:37;23.80;;;22.50;;
11037;SDS011;5572;49.540;11.932;2024-03-23T03:26:04;24.47;;;23.13;;
11037;SDS011;5572;49.540;11.932;2024-03-23T03:28:30;21.47;;;20.37;;
11037;SDS011;5572;49.540;11.932;2024-03-23T03:30:57;23.50;;;22.20;;
11037;SDS011;5572;49.540;11.932;2024-03-23T03:33:25;25.27;;;23.87;;
11037;SDS011;5572;49.540;11.932;2024-03-23T03:35:52;23.93;;;22.63;;
11037;SDS011;5572;49.540;11.932;2024-03-23T03:38:18;23.53;;;22.23;;
11037;SDS011;5572;49.540;11.932;2024-03-23T03:40:45;24.30;;;23.03;;
11037;SDS011;5572;49.540;11.932;2024-03-23T03:43:10;24.77;;;23.47;;
11037;SDS011;5572;49.540;11.932;2024-03-23T03:45:37;23.30;;;22.10;;
11037;SDS011;5572;49.540;11.932;2024-03-23T03:48:03;25.27;;;23.87;;
11037;SDS011;5572;49.540;11.932;2024-03-23T05:59:14;25.77;;;24.37;;
11037;SDS011;5572;49.540;11.932;2024-03-23T06:01:39;26.73;;;25.27;;
11037;SDS011;5572;49.540;11.932;2024-03-23T06:04:06;26.57;;;25.17;;
11037;SDS011;5572;49.540;11.932;2024-03-23T06:06:31;27.87;;;26.37;;
11037;SDS011;5572;49.540;11.932;2024-03-23T06:08:58;29.37;;;27.77;;
11037;SDS011;5572;49.540;11.932;2024-03-23T06:11:23;27.93;;;26.43;;
11037;SDS011;5572;49.540;11.932;2024-03-23T06:13:53;29.30;;;27.67;;
11037;SDS011;5572;49.540;11.932;2024-03-23T06:16:18;30.07;;;28.30;;
11037;SDS011;5572;49.540;11.932;2024-03-23T06:18:48;27.90;;;26.40;;
11037;SDS011;5572;49.540;11.932;2024-03-23T06:21:14;28.67;;;27.07;;
11037;SDS011;5572;49.540;11.932;2024-03-23T06:23:40;29.87;;;28.27;;
11037;SDS011;5572;49.540;11.932;2024-03-23T06:26:06;32.40;;;30.60;;
11037;SDS011;5572;49.540;11.932;2024-03-23T06:28:33;31.47;;;29.77;;
11037;SDS011;5572;49.540;11.932;2024-03-23T06:30:59;31.93;;;30.20;;
11037;SDS011;5572;49.540;11.932;2024-03-23T06:33:26;31.03;;;29.33;;
11037;SDS011;5572;49.540;11.932;2024-03-23T06:35:51;32.13;;;30.07;;
11037;SDS011;5572;49.540;11.932;2024-03-23T06:38:18;29.33;;;27.83;;
11037;SDS011;5572;49.540;11.932;2024-03-23T06:40:44;29.87;;;28.17;;
11037;SDS011;5572;49.540;11.932;2024-03-23T06:43:12;24.97;;;23.57;;
11037;SDS011;5572;49.540;11.932;2024-03-23T06:45:38;24.43;;;23.03;;
11037;SDS011;5572;49.540;11.932;2024-03-23T06:48:06;24.17;;;22.77;;
11037;SDS011;5572;49.540;11.932;2024-03-23T06:50:33;25.50;;;24.10;;
11037;SDS011;5572;49.540;11.932;2024-03-23T06:52:59;24.33;;;23.07;;
11037;SDS011;5572;49.540;11.932;2024-03-23T06:55:26;25.03;;;23.63;;
11037;SDS011;5572;49.540;11.932;2024-03-23T06:57:53;26.03;;;24.63;;
11037;SDS011;5572;49.540;11.932;2024-03-23T07:00:19;25.10;;;23.70;;
11037;SDS011;5572;49.540;11.932;2024-03-23T07:02:45;23.53;;;22.33;;
11037;SDS011;5572;49.540;11.932;2024-03-23T07:05:12;23.50;;;22.20;;
11037;SDS011;5572;49.540;11.932;2024-03-23T07:07:39;24.63;;;23.27;;
11037;SDS011;5572;49.540;11.932;2024-03-23T07:10:05;24.57;;;23.27;;
11037;SDS011;5572;49.540;11.932;2024-03-23T07:12:32;25.07;;;23.53;;
11037;SDS011;5572;49.540;11.932;2024-03-23T07:14:58;23.87;;;22.57;;
11037;SDS011;5572;49.540;11.932;2024-03-23T07:17:24;22.87;;;21.67;;
11037;SDS011;5572;49.540;11.932;2024-03-23T07:19:50;24.60;;;23.23;;
11037;SDS011;5572;49.540;11.932;2024-03-23T07:22:18;23.80;;;22.50;;
11037;SDS011;5572;49.540;11.932;2024-03-23T07:24:43;24.10;;;22.67;;
11037;SDS011;5572;49.540;11.932;2024-03-23T07:27:10;25.17;;;23.77;;
11037;SDS011;5572;49.540;11.932;2024-03-23T07:29:36;30.17;;;28.13;;
11037;SDS011;5572;49.540;11.932;2024-03-23T07:32:02;25.90;;;24.40;;
11037;SDS011;5572;49.540;11.932;2024-03-23T07:34:28;27.90;;;26.13;;
11037;SDS011;5572;49.540;11.932;2024-03-23T07:36:55;27.27;;;25.63;;
11037;SDS011;5572;49.540;11.932;2024-03-23T07:39:22;26.40;;;24.70;;
11037;SDS011;5572;49.540;11.932;2024-03-23T07:41:49;25.73;;;24.23;;
11037;SDS011;5572;49.540;11.932;2024-03-23T07:44:15;27.33;;;25.53;;
11037;SDS011;5572;49.540;11.932;2024-03-23T07:46:41;26.13;;;24.63;;
11037;SDS011;5572;49.540;11.932;2024-03-23T07:49:07;26.13;;;24.60;;
11037;SDS011;5572;49.540;11.932;2024-03-23T07:51:34;25.30;;;23.80;;
11037;SDS011;5572;49.540;11.932;2024-03-23T07:54:00;27.30;;;25.63;;
11037;SDS011;5572;49.540;11.932;2024-03-23T07:56:28;25.30;;;23.90;;
11037;SDS011;5572;49.540;11.932;2024-03-23T07:58:53;26.20;;;24.70;;
11037;SDS011;5572;49.540;11.932;2024-03-23T08:01:20;25.20;;;23.80;;
11037;SDS011;5572;49.540;11.932;2024-03-23T08:03:45;26.87;;;25.27;;
11037;SDS011;5572;49.540;11.932;2024-03-23T08:06:14;24.67;;;23.17;;
11037;SDS011;5572;49.540;11.932;2024-03-23T08:08:41;25.33;;;23.83;;
11037;SDS011;5572;49.540;11.932;2024-03-23T08:11:09;26.37;;;24.77;;
11037;SDS011;5572;49.540;11.932;2024-03-23T08:13:38;25.57;;;24.07;;
11037;SDS011;5572;49.540;11.932;2024-03-23T08:16:05;26.40;;;24.67;;
11037;SDS011;5572;49.540;11.932;2024-03-23T08:18:31;24.80;;;23.40;;
11037;SDS011;5572;49.540;11.932;2024-03-23T08:20:58;23.17;;;21.93;;
11037;SDS011;5572;49.540;11.932;2024-03-23T08:23:24;25.43;;;23.93;;
11037;SDS011;5572;49.540;11.932;2024-03-23T08:25:51;24.80;;;23.30;;
11037;SDS011;5572;49.540;11.932;2024-03-23T08:28:17;24.63;;;23.27;;
11037;SDS011;5572;49.540;11.932;2024-03-23T08:30:45;24.47;;;23.07;;
11037;SDS011;5572;49.540;11.932;2024-03-23T08:33:10;28.00;;;25.90;;
11037;SDS011;5572;49.540;11.932;2024-03-23T08:35:38;24.07;;;22.77;;
11037;SDS011;5572;49.540;11.932;2024-03-23T08:38:04;26.37;;;24.77;;
11037;SDS011;5572;49.540;11.932;2024-03-23T08:40:30;25.50;;;24.07;;
11037;SDS011;5572;49.540;11.932;2024-03-23T08:42:56;24.23;;;22.93;;
11037;SDS011;5572;49.540;11.932;2024-03-23T08:45:24;23.50;;;22.20;;
11037;SDS011;5572;49.540;11.932;2024-03-23T08:47:51;23.17;;;21.97;;
11037;SDS011;5572;49.540;11.932;2024-03-23T08:50:18;23.43;;;22.23;;
11037;SDS011;5572;49.540;11.932;2024-03-23T08:52:43;24.70;;;23.30;;
11037;SDS011;5572;49.540;11.932;2024-03-23T08:55:10;27.97;;;26.47;;
11037;SDS011;5572;49.540;11.932;2024-03-23T08:57:36;28.63;;;26.93;;
11037;SDS011;5572;49.540;11.932;2024-03-23T09:00:02;27.77;;;26.17;;
11037;SDS011;5572;49.540;11.932;2024-03-23T09:02:31;23.07;;;21.87;;
11037;SDS011;5572;49.540;11.932;2024-03-23T09:04:59;23.37;;;22.17;;
11037;SDS011;5572;49.540;11.932;2024-03-23T09:07:29;22.97;;;21.77;;
11037;SDS011;5572;49.540;11.932;2024-03-23T09:09:56;23.13;;;21.93;;
11037;SDS011;5572;49.540;11.932;2024-03-23T09:12:21;23.70;;;22.43;;
11037;SDS011;5572;49.540;11.932;2024-03-23T09:14:48;23.57;;;22.27;;
11037;SDS011;5572;49.540;11.932;2024-03-23T09:17:14;22.97;;;21.67;;
11037;SDS011;5572;49.540;11.932;2024-03-23T09:19:43;25.73;;;24.20;;
11037;SDS011;5572;49.540;11.932;2024-03-23T09:22:10;25.93;;;24.30;;
11037;SDS011;5572;49.540;11.932;2024-03-23T09:24:38;25.20;;;23.67;;
11037;SDS011;5572;49.540;11.932;2024-03-23T09:27:04;24.50;;;23.10;;
11037;SDS011;5572;49.540;11.932;2024-03-23T09:29:31;23.87;;;22.47;;
11037;SDS011;5572;49.540;11.932;2024-03-23T09:31:57;24.63;;;23.23;;
11037;SDS011;5572;49.540;11.932;2024-03-23T09:34:24;26.60;;;24.93;;
11037;SDS011;5572;49.540;11.932;2024-03-23T09:36:50;24.73;;;23.33;;
11037;SDS011;5572;49.540;11.932;2024-03-23T09:39:19;24.63;;;23.17;;
11037;SDS011;5572;49.540;11.932;2024-03-23T09:41:45;24.43;;;22.90;;
11037;SDS011;5572;49.540;11.932;2024-03-23T09:44:12;24.23;;;22.80;;
11037;SDS011;5572;49.540;11.932;2024-03-23T09:46:37;23.53;;;22.13;;
11037;SDS011;5572;49.540;11.932;2024-03-23T09:49:05;21.00;;;19.70;;
11037;SDS011;5572;49.540;11.932;2024-03-23T09:51:33;21.30;;;20.00;;
11037;SDS011;5572;49.540;11.932;2024-03-23T09:54:02;21.43;;;20.03;;
11037;SDS011;5572;49.540;11.932;2024-03-23T09:56:29;20.27;;;19.00;;
11037;SDS011;5572;49.540;11.932;2024-03-23T09:59:02;18.17;;;17.17;;
11037;SDS011;5572;49.540;11.932;2024-03-23T10:01:29;18.63;;;17.63;;
11037;SDS011;5572;49.540;11.932;2024-03-23T10:03:56;18.60;;;17.60;;
11037;SDS011;5572;49.540;11.932;2024-03-23T10:06:22;16.70;;;15.73;;
11037;SDS011;5572;49.540;11.932;2024-03-23T10:08:51;14.50;;;13.80;;
11037;SDS011;5572;49.540;11.932;2024-03-23T10:11:20;17.60;;;16.60;;
11037;SDS011;5572;49.540;11.932;2024-03-23T10:38:55;18.73;;;17.73;;
11037;SDS011;5572;49.540;11.932;2024-03-23T10:41:24;19.07;;;17.97;;
11037;SDS011;5572;49.540;11.932;2024-03-23T10:43:52;17.07;;;16.27;;
11037;SDS011;5572;49.540;11.932;2024-03-23T10:46:21;18.20;;;17.20;;
11037;SDS011;5572;49.540;11.932;2024-03-23T10:48:48;18.57;;;17.53;;
11037;SDS011;5572;49.540;11.932;2024-03-23T10:51:15;19.93;;;18.63;;
11037;SDS011;5572;49.540;11.932;2024-03-23T10:53:41;18.67;;;17.67;;
11037;SDS011;5572;49.540;11.932;2024-03-23T10:56:09;17.00;;;16.03;;
11037;SDS011;5572;49.540;11.932;2024-03-23T10:58:38;16.20;;;15.30;;
11037;SDS011;5572;49.540;11.932;2024-03-23T11:01:06;17.83;;;16.83;;
11037;SDS011;5572;49.540;11.932;2024-03-23T11:03:36;17.47;;;16.57;;
11037;SDS011;5572;49.540;11.932;2024-03-23T11:06:04;17.30;;;16.20;;
11037;SDS011;5572;49.540;11.932;2024-03-23T11:08:30;15.90;;;15.10;;
11037;SDS011;5572;49.540;11.932;2024-03-23T11:11:18;15.40;;;14.60;;
11037;SDS011;5572;49.540;11.932;2024-03-23T11:13:46;17.63;;;16.63;;
11037;SDS011;5572;49.540;11.932;2024-03-23T11:16:16;15.00;;;14.20;;
11037;SDS011;5572;49.540;11.932;2024-03-23T11:18:43;16.33;;;15.43;;
11037;SDS011;5572;49.540;11.932;2024-03-23T11:21:10;15.23;;;14.33;;
11037;SDS011;5572;49.540;11.932;2024-03-23T11:26:47;14.83;;;14.03;;
11037;SDS011;5572;49.540;11.932;2024-03-23T11:29:13;15.07;;;14.27;;
11037;SDS011;5572;49.540;11.932;2024-03-23T11:31:46;15.87;;;14.97;;
11037;SDS011;5572;49.540;11.932;2024-03-23T11:34:12;18.37;;;17.37;;
11037;SDS011;5572;49.540;11.932;2024-03-23T11:36:39;19.13;;;18.03;;
11037;SDS011;5572;49.540;11.932;2024-03-23T11:39:11;18.93;;;17.93;;
11037;SDS011;5572;49.540;11.932;2024-03-23T11:41:48;19.43;;;18.33;;
11037;SDS011;5572;49.540;11.932;2024-03-23T11:44:16;18.47;;;17.47;;
11037;SDS011;5572;49.540;11.932;2024-03-23T11:46:43;18.57;;;17.57;;
11037;SDS011;5572;49.540;11.932;2024-03-23T11:49:19;17.87;;;16.87;;
11037;SDS011;5572;49.540;11.932;2024-03-23T11:51:48;19.00;;;17.90;;
11037;SDS011;5572;49.540;11.932;2024-03-23T11:54:14;20.87;;;19.63;;
11037;SDS011;5572;49.540;11.932;2024-03-23T11:56:54;15.47;;;14.67;;
11037;SDS011;5572;49.540;11.932;2024-03-23T11:59:31;15.53;;;14.63;;
11037;SDS011;5572;49.540;11.932;2024-03-23T12:01:58;14.53;;;13.73;;
11037;SDS011;5572;49.540;11.932;2024-03-23T12:04:25;15.67;;;14.73;;
11037;SDS011;5572;49.540;11.932;2024-03-23T12:07:08;15.50;;;14.67;;
11037;SDS011;5572;49.540;11.932;2024-03-23T12:09:35;14.70;;;14.00;;
11037;SDS011;5572;49.540;11.932;2024-03-23T12:12:07;14.07;;;13.37;;
11037;SDS011;5572;49.540;11.932;2024-03-23T12:14:36;14.77;;;13.93;;
11037;SDS011;5572;49.540;11.932;2024-03-23T12:17:18;15.17;;;14.27;;
11037;SDS011;5572;49.540;11.932;2024-03-23T12:19:47;15.10;;;14.30;;
11037;SDS011;5572;49.540;11.932;2024-03-23T12:22:13;14.00;;;13.20;;
11037;SDS011;5572;49.540;11.932;2024-03-23T12:24:40;14.20;;;13.50;;
11037;SDS011;5572;49.540;11.932;2024-03-23T12:27:11;14.43;;;13.67;;
11037;SDS011;5572;49.540;11.932;2024-03-23T12:29:37;14.60;;;13.80;;
11037;SDS011;5572;49.540;11.932;2024-03-23T12:32:06;12.83;;;12.23;;
11037;SDS011;5572;49.540;11.932;2024-03-23T12:34:32;15.00;;;14.13;;
11037;SDS011;5572;49.540;11.932;2024-03-23T12:36:59;13.10;;;12.50;;
11037;SDS011;5572;49.540;11.932;2024-03-23T12:39:25;12.27;;;11.67;;
11037;SDS011;5572;49.540;11.932;2024-03-23T12:41:52;12.43;;;11.83;;
11037;SDS011;5572;49.540;11.932;2024-03-23T12:44:19;13.17;;;12.43;;
11037;SDS011;5572;49.540;11.932;2024-03-23T12:46:46;12.17;;;11.57;;
11037;SDS011;5572;49.540;11.932;2024-03-23T12:49:12;10.77;;;10.27;;
11037;SDS011;5572;49.540;11.932;2024-03-23T12:51:39;10.50;;;10.00;;
11037;SDS011;5572;49.540;11.932;2024-03-23T12:54:11;11.43;;;10.83;;
11037;SDS011;5572;49.540;11.932;2024-03-23T12:56:37;9.83;;;9.40;;
11037;SDS011;5572;49.540;11.932;2024-03-23T12:59:03;12.37;;;11.77;;
11037;SDS011;5572;49.540;11.932;2024-03-23T13:01:31;10.03;;;9.63;;
11037;SDS011;5572;49.540;11.932;2024-03-23T13:03:58;11.47;;;10.93;;
11037;SDS011;5572;49.540;11.932;2024-03-23T13:06:26;11.37;;;10.87;;
11037;SDS011;5572;49.540;11.932;2024-03-23T13:08:52;9.30;;;8.90;;
11037;SDS011;5572;49.540;11.932;2024-03-23T13:11:19;10.10;;;9.60;;
11037;SDS011;5572;49.540;11.932;2024-03-23T13:13:45;10.20;;;9.70;;
11037;SDS011;5572;49.540;11.932;2024-03-23T13:16:12;9.83;;;9.40;;
11037;SDS011;5572;49.540;11.932;2024-03-23T13:18:39;9.27;;;8.87;;
11037;SDS011;5572;49.540;11.932;2024-03-23T13:21:05;9.00;;;8.60;;
11037;SDS011;5572;49.540;11.932;2024-03-23T13:23:31;9.10;;;8.70;;
11037;SDS011;5572;49.540;11.932;2024-03-23T13:25:59;8.90;;;8.50;;
11037;SDS011;5572;49.540;11.932;2024-03-23T13:28:25;8.70;;;8.30;;
11037;SDS011;5572;49.540;11.932;2024-03-23T13:30:51;8.50;;;8.10;;
11037;SDS011;5572;49.540;11.932;2024-03-23T13:33:18;8.50;;;8.10;;
11037;SDS011;5572;49.540;11.932;2024-03-23T13:35:52;9.50;;;9.10;;
11037;SDS011;5572;49.540;11.932;2024-03-23T13:38:19;8.70;;;8.30;;
11037;SDS011;5572;49.540;11.932;2024-03-23T13:40:52;8.63;;;8.23;;
11037;SDS011;5572;49.540;11.932;2024-03-23T13:43:18;8.67;;;8.27;;
11037;SDS011;5572;49.540;11.932;2024-03-23T13:45:46;9.03;;;8.63;;
11037;SDS011;5572;49.540;11.932;2024-03-23T13:51:35;9.97;;;9.53;;
11037;SDS011;5572;49.540;11.932;2024-03-23T13:54:00;9.90;;;9.50;;
11037;SDS011;5572;49.540;11.932;2024-03-23T13:56:27;12.13;;;11.53;;
11037;SDS011;5572;49.540;11.932;2024-03-23T13:58:54;10.30;;;9.80;;
11037;SDS011;5572;49.540;11.932;2024-03-23T14:01:21;11.30;;;10.77;;
11037;SDS011;5572;49.540;11.932;2024-03-23T14:03:47;10.67;;;10.17;;
11037;SDS011;5572;49.540;11.932;2024-03-23T14:06:13;9.63;;;9.23;;
11037;SDS011;5572;49.540;11.932;2024-03-23T14:08:41;10.67;;;10.17;;
11037;SDS011;5572;49.540;11.932;2024-03-23T14:11:08;10.93;;;10.43;;
11037;SDS011;5572;49.540;11.932;2024-03-23T14:13:34;10.60;;;10.10;;
11037;SDS011;5572;49.540;11.932;2024-03-23T14:16:01;10.53;;;10.03;;
11037;SDS011;5572;49.540;11.932;2024-03-23T14:18:27;10.47;;;9.97;;
11037;SDS011;5572;49.540;11.932;2024-03-23T14:20:56;9.70;;;9.30;;
11037;SDS011;5572;49.540;11.932;2024-03-23T14:23:23;11.30;;;10.80;;
11037;SDS011;5572;49.540;11.932;2024-03-23T14:25:53;10.70;;;10.20;;
11037;SDS011;5572;49.540;11.932;2024-03-23T14:28:19;9.80;;;9.40;;
11037;SDS011;5572;49.540;11.932;2024-03-23T14:30:47;9.83;;;9.43;;
11037;SDS011;5572;49.540;11.932;2024-03-23T14:33:12;11.43;;;10.93;;
11037;SDS011;5572;49.540;11.932;2024-03-23T14:35:39;12.07;;;11.47;;
11037;SDS011;5572;49.540;11.932;2024-03-23T14:38:05;10.87;;;10.37;;
11037;SDS011;5572;49.540;11.932;2024-03-23T14:40:31;11.00;;;10.50;;
11037;SDS011;5572;49.540;11.932;2024-03-23T15:48:42;9.00;;;8.60;;
11037;SDS011;5572;49.540;11.932;2024-03-23T15:51:14;9.13;;;8.73;;
11037;SDS011;5572;49.540;11.932;2024-03-23T15:53:41;9.57;;;9.17;;
11037;SDS011;5572;49.540;11.932;2024-03-23T15:56:10;9.93;;;9.53;;
11037;SDS011;5572;49.540;11.932;2024-03-23T15:58:38;10.10;;;9.70;;
11037;SDS011;5572;49.540;11.932;2024-03-23T16:01:08;9.70;;;9.30;;
11037;SDS011;5572;49.540;11.932;2024-03-23T16:03:36;9.27;;;8.87;;
11037;SDS011;5572;49.540;11.932;2024-03-23T16:06:09;10.10;;;9.70;;
11037;SDS011;5572;49.540;11.932;2024-03-23T16:08:36;10.00;;;9.60;;
11037;SDS011;5572;49.540;11.932;2024-03-23T16:11:07;10.83;;;10.23;;
11037;SDS011;5572;49.540;11.932;2024-03-23T16:13:34;10.83;;;10.33;;
11037;SDS011;5572;49.540;11.932;2024-03-23T16:16:03;10.60;;;10.10;;
11037;SDS011;5572;49.540;11.932;2024-03-23T16:18:32;11.03;;;10.43;;
11037;SDS011;5572;49.540;11.932;2024-03-23T16:21:07;11.83;;;11.20;;
11037;SDS011;5572;49.540;11.932;2024-03-23T16:23:34;10.83;;;10.33;;
11037;SDS011;5572;49.540;11.932;2024-03-23T16:26:06;9.93;;;9.53;;
11037;SDS011;5572;49.540;11.932;2024-03-23T16:28:35;12.00;;;11.47;;
11037;SDS011;5572;49.540;11.932;2024-03-23T16:33:46;13.03;;;12.43;;
11037;SDS011;5572;49.540;11.932;2024-03-23T16:36:27;14.23;;;13.57;;
11037;SDS011;5572;49.540;11.932;2024-03-23T16:38:54;13.83;;;13.23;;
11037;SDS011;5572;49.540;11.932;2024-03-23T16:43:58;13.50;;;12.90;;
11037;SDS011;5572;49.540;11.932;2024-03-23T16:46:29;13.57;;;12.97;;
11037;SDS011;5572;49.540;11.932;2024-03-23T16:48:57;13.27;;;12.67;;
11037;SDS011;5572;49.540;11.932;2024-03-23T16:56:39;13.90;;;13.27;;
11037;SDS011;5572;49.540;11.932;2024-03-23T16:59:09;13.93;;;13.23;;
11037;SDS011;5572;49.540;11.932;2024-03-23T17:04:12;12.43;;;11.87;;
11037;SDS011;5572;49.540;11.932;2024-03-23T17:06:54;12.53;;;11.93;;
11037;SDS011;5572;49.540;11.932;2024-03-23T17:09:27;13.37;;;12.77;;
11037;SDS011;5572;49.540;11.932;2024-03-23T17:11:55;13.03;;;12.43;;
11037;SDS011;5572;49.540;11.932;2024-03-23T17:14:31;12.90;;;12.30;;
11037;SDS011;5572;49.540;11.932;2024-03-23T17:16:58;13.20;;;12.60;;
11037;SDS011;5572;49.540;11.932;2024-03-23T17:19:27;12.90;;;12.30;;
11037;SDS011;5572;49.540;11.932;2024-03-23T17:24:30;48.37;;;33.03;;
11037;SDS011;5572;49.540;11.932;2024-03-23T17:27:02;12.80;;;12.20;;
11037;SDS011;5572;49.540;11.932;2024-03-23T17:29:30;13.43;;;12.83;;
11037;SDS011;5572;49.540;11.932;2024-03-23T17:37:11;12.87;;;12.27;;
11037;SDS011;5572;49.540;11.932;2024-03-23T17:39:44;13.17;;;12.53;;
11037;SDS011;5572;49.540;11.932;2024-03-23T17:44:54;12.63;;;12.03;;
11037;SDS011;5572;49.540;11.932;2024-03-23T17:47:25;12.90;;;12.30;;
11037;SDS011;5572;49.540;11.932;2024-03-23T17:49:52;13.00;;;12.40;;
11037;SDS011;5572;49.540;11.932;2024-03-23T17:52:24;13.17;;;12.57;;
11037;SDS011;5572;49.540;11.932;2024-03-23T17:54:52;13.23;;;12.63;;
11037;SDS011;5572;49.540;11.932;2024-03-23T17:57:21;13.07;;;12.47;;
11037;SDS011;5572;49.540;11.932;2024-03-23T17:59:48;13.00;;;12.40;;
11037;SDS011;5572;49.540;11.932;2024-03-23T18:10:06;18.07;;;17.17;;
11037;SDS011;5572;49.540;11.932;2024-03-23T18:12:38;17.93;;;17.03;;
11037;SDS011;5572;49.540;11.932;2024-03-23T18:15:06;18.33;;;17.43;;
11037;SDS011;5572;49.540;11.932;2024-03-23T18:17:35;18.17;;;17.27;;
11037;SDS011;5572;49.540;11.932;2024-03-23T18:20:02;17.63;;;16.70;;
11037;SDS011;5572;49.540;11.932;2024-03-23T18:22:34;18.77;;;17.87;;
11037;SDS011;5572;49.540;11.932;2024-03-23T18:25:01;18.80;;;17.80;;
11037;SDS011;5572;49.540;11.932;2024-03-23T18:27:35;17.60;;;16.80;;
11037;SDS011;5572;49.540;11.932;2024-03-23T18:30:02;18.57;;;17.63;;
11037;SDS011;5572;49.540;11.932;2024-03-23T18:32:33;17.23;;;16.43;;
11037;SDS011;5572;49.540;11.932;2024-03-23T18:35:01;17.17;;;16.37;;
11037;SDS011;5572;49.540;11.932;2024-03-23T18:37:31;17.93;;;17.03;;
11037;SDS011;5572;49.540;11.932;2024-03-23T18:40:00;17.80;;;16.97;;
11037;SDS011;5572;49.540;11.932;2024-03-23T18:49:06;18.30;;;17.40;;
11037;SDS011;5572;49.540;11.932;2024-03-23T18:56:49;18.20;;;17.30;;
11037;SDS011;5572;49.540;11.932;2024-03-23T18:59:26;19.03;;;18.03;;
